sensor_id;sensor_type;location;lat;lon;timestamp;pressure;altitude;pressure_sealevel;temperature;humidity
19676;BME280;39539;52.202;9.876;2023-05-29T00:00:28;101521.16;;;12.71;100.00
19676;BME280;39539;52.202;9.876;2023-05-29T00:02:54;101516.59;;;12.65;100.00
19676;BME280;39539;52.202;9.876;2023-05-29T00:05:20;101520.06;;;12.59;100.00
19676;BME280;39539;52.202;9.876;2023-05-29T00:07:46;101511.63;;;12.49;100.00
19676;BME280;39539;52.202;9.876;2023-05-29T00:10:11;101533.38;;;12.52;100.00
19676;BME280;39539;52.202;9.876;2023-05-29T00:12:38;101530.09;;;12.50;100.00
19676;BME280;39539;52.202;9.876;2023-05-29T00:15:04;101521.00;;;12.38;100.00
19676;BME280;39539;52.202;9.876;2023-05-29T00:17:31;101528.44;;;12.49;100.00
19676;BME280;39539;52.202;9.876;2023-05-29T00:19:58;101517.06;;;12.34;100.00
19676;BME280;39539;52.202;9.876;2023-05-29T00:22:24;101518.97;;;12.40;100.00
19676;BME280;39539;52.202;9.876;2023-05-29T00:24:51;101517.47;;;12.31;100.00
19676;BME280;39539;52.202;9.876;2023-05-29T00:27:17;101523.84;;;12.30;100.00
19676;BME280;39539;52.202;9.876;2023-05-29T00:29:42;101525.03;;;12.21;100.00
19676;BME280;39539;52.202;9.876;2023-05-29T00:32:09;101540.56;;;12.17;100.00
19676;BME280;39539;52.202;9.876;2023-05-29T00:34:34;101536.47;;;12.15;100.00
19676;BME280;39539;52.202;9.876;2023-05-29T00:37:01;101536.84;;;12.11;100.00
19676;BME280;39539;52.202;9.876;2023-05-29T00:39:28;101533.13;;;12.06;100.00
19676;BME280;39539;52.202;9.876;2023-05-29T00:41:53;101534.34;;;12.03;100.00
19676;BME280;39539;52.202;9.876;2023-05-29T00:44:19;101537.00;;;12.03;100.00
19676;BME280;39539;52.202;9.876;2023-05-29T00:46:49;101556.06;;;12.00;100.00
19676;BME280;39539;52.202;9.876;2023-05-29T00:49:16;101558.88;;;11.92;100.00
19676;BME280;39539;52.202;9.876;2023-05-29T00:51:42;101567.16;;;11.82;100.00
19676;BME280;39539;52.202;9.876;2023-05-29T00:54:12;101554.56;;;11.69;100.00
19676;BME280;39539;52.202;9.876;2023-05-29T00:56:43;101567.75;;;11.78;100.00
19676;BME280;39539;52.202;9.876;2023-05-29T00:59:15;101567.34;;;11.81;100.00
19676;BME280;39539;52.202;9.876;2023-05-29T01:01:41;101553.34;;;11.72;100.00
19676;BME280;39539;52.202;9.876;2023-05-29T01:04:29;101564.47;;;11.82;100.00
19676;BME280;39539;52.202;9.876;2023-05-29T01:06:54;101556.53;;;11.61;100.00
19676;BME280;39539;52.202;9.876;2023-05-29T01:09:21;101572.63;;;11.53;100.00
19676;BME280;39539;52.202;9.876;2023-05-29T01:18:06;101578.28;;;11.64;100.00
19676;BME280;39539;52.202;9.876;2023-05-29T01:20:55;101575.75;;;11.56;100.00
19676;BME280;39539;52.202;9.876;2023-05-29T01:23:47;101579.03;;;11.58;100.00
19676;BME280;39539;52.202;9.876;2023-05-29T01:29:03;101577.75;;;11.54;100.00
19676;BME280;39539;52.202;9.876;2023-05-29T01:31:36;101582.66;;;11.51;100.00
19676;BME280;39539;52.202;9.876;2023-05-29T01:34:02;101588.75;;;11.44;100.00
19676;BME280;39539;52.202;9.876;2023-05-29T01:36:28;101571.44;;;11.34;100.00
19676;BME280;39539;52.202;9.876;2023-05-29T01:38:57;101577.19;;;11.37;100.00
19676;BME280;39539;52.202;9.876;2023-05-29T01:41:23;101593.63;;;11.41;100.00
19676;BME280;39539;52.202;9.876;2023-05-29T01:43:50;101591.97;;;11.40;100.00
19676;BME280;39539;52.202;9.876;2023-05-29T01:46:21;101598.41;;;11.31;100.00
19676;BME280;39539;52.202;9.876;2023-05-29T01:48:47;101587.63;;;11.17;100.00
19676;BME280;39539;52.202;9.876;2023-05-29T01:51:13;101604.22;;;11.19;100.00
19676;BME280;39539;52.202;9.876;2023-05-29T01:53:39;101603.78;;;11.16;100.00
19676;BME280;39539;52.202;9.876;2023-05-29T01:56:08;101594.53;;;11.12;100.00
19676;BME280;39539;52.202;9.876;2023-05-29T01:58:46;101610.09;;;11.15;100.00
19676;BME280;39539;52.202;9.876;2023-05-29T02:01:13;101614.34;;;11.09;100.00
19676;BME280;39539;52.202;9.876;2023-05-29T02:03:43;101602.38;;;10.98;100.00
19676;BME280;39539;52.202;9.876;2023-05-29T02:06:08;101592.72;;;10.97;100.00
19676;BME280;39539;52.202;9.876;2023-05-29T02:08:41;101609.06;;;10.94;100.00
19676;BME280;39539;52.202;9.876;2023-05-29T02:11:07;101597.53;;;10.87;100.00
19676;BME280;39539;52.202;9.876;2023-05-29T02:13:32;101600.66;;;10.76;100.00
19676;BME280;39539;52.202;9.876;2023-05-29T02:15:58;101603.69;;;10.73;100.00
19676;BME280;39539;52.202;9.876;2023-05-29T02:18:26;101583.78;;;10.69;100.00
19676;BME280;39539;52.202;9.876;2023-05-29T02:20:51;101592.19;;;10.72;100.00
19676;BME280;39539;52.202;9.876;2023-05-29T02:23:17;101600.09;;;10.81;100.00
19676;BME280;39539;52.202;9.876;2023-05-29T02:25:56;101616.03;;;10.81;100.00
19676;BME280;39539;52.202;9.876;2023-05-29T02:28:22;101603.41;;;10.68;100.00
19676;BME280;39539;52.202;9.876;2023-05-29T02:30:47;101623.63;;;10.84;100.00
19676;BME280;39539;52.202;9.876;2023-05-29T02:33:14;101633.09;;;10.71;100.00
19676;BME280;39539;52.202;9.876;2023-05-29T02:35:39;101635.03;;;10.77;100.00
19676;BME280;39539;52.202;9.876;2023-05-29T02:38:06;101623.00;;;10.67;100.00
19676;BME280;39539;52.202;9.876;2023-05-29T02:40:33;101626.25;;;10.62;100.00
19676;BME280;39539;52.202;9.876;2023-05-29T02:42:58;101631.44;;;10.55;100.00
19676;BME280;39539;52.202;9.876;2023-05-29T02:45:23;101648.41;;;10.69;100.00
19676;BME280;39539;52.202;9.876;2023-05-29T02:47:52;101643.81;;;10.63;100.00
19676;BME280;39539;52.202;9.876;2023-05-29T02:50:17;101652.25;;;10.67;100.00
19676;BME280;39539;52.202;9.876;2023-05-29T02:52:42;101630.69;;;10.47;100.00
19676;BME280;39539;52.202;9.876;2023-05-29T02:55:08;101649.31;;;10.47;100.00
19676;BME280;39539;52.202;9.876;2023-05-29T02:57:36;101642.25;;;10.39;100.00
19676;BME280;39539;52.202;9.876;2023-05-29T03:00:03;101629.88;;;10.31;100.00
19676;BME280;39539;52.202;9.876;2023-05-29T03:02:34;101634.38;;;10.31;100.00
19676;BME280;39539;52.202;9.876;2023-05-29T03:05:02;101642.16;;;10.32;100.00
19676;BME280;39539;52.202;9.876;2023-05-29T03:07:27;101658.75;;;10.34;100.00
19676;BME280;39539;52.202;9.876;2023-05-29T03:09:54;101627.41;;;10.07;100.00
19676;BME280;39539;52.202;9.876;2023-05-29T03:12:20;101657.66;;;10.21;100.00
19676;BME280;39539;52.202;9.876;2023-05-29T03:14:47;101650.94;;;10.10;100.00
19676;BME280;39539;52.202;9.876;2023-05-29T03:17:14;101657.00;;;10.19;100.00
19676;BME280;39539;52.202;9.876;2023-05-29T03:19:39;101648.28;;;10.10;100.00
19676;BME280;39539;52.202;9.876;2023-05-29T03:22:05;101656.25;;;10.10;100.00
19676;BME280;39539;52.202;9.876;2023-05-29T03:24:30;101660.94;;;10.08;100.00
19676;BME280;39539;52.202;9.876;2023-05-29T03:26:55;101669.19;;;10.13;100.00
19676;BME280;39539;52.202;9.876;2023-05-29T03:29:22;101667.91;;;10.09;100.00
19676;BME280;39539;52.202;9.876;2023-05-29T03:31:48;101664.53;;;10.15;100.00
19676;BME280;39539;52.202;9.876;2023-05-29T03:34:13;101677.72;;;10.31;100.00
19676;BME280;39539;52.202;9.876;2023-05-29T03:36:44;101667.66;;;10.19;100.00
19676;BME280;39539;52.202;9.876;2023-05-29T03:39:11;101675.41;;;10.28;100.00
19676;BME280;39539;52.202;9.876;2023-05-29T03:41:37;101664.22;;;10.10;100.00
19676;BME280;39539;52.202;9.876;2023-05-29T03:44:02;101661.19;;;9.98;100.00
19676;BME280;39539;52.202;9.876;2023-05-29T03:46:28;101664.84;;;9.97;100.00
19676;BME280;39539;52.202;9.876;2023-05-29T03:48:53;101665.44;;;9.84;100.00
19676;BME280;39539;52.202;9.876;2023-05-29T03:51:18;101677.38;;;9.88;100.00
19676;BME280;39539;52.202;9.876;2023-05-29T03:53:47;101664.84;;;9.74;100.00
19676;BME280;39539;52.202;9.876;2023-05-29T03:56:12;101681.47;;;9.68;100.00
19676;BME280;39539;52.202;9.876;2023-05-29T03:58:37;101685.44;;;9.72;100.00
19676;BME280;39539;52.202;9.876;2023-05-29T04:01:03;101685.13;;;9.67;100.00
19676;BME280;39539;52.202;9.876;2023-05-29T04:03:29;101684.66;;;9.63;100.00
19676;BME280;39539;52.202;9.876;2023-05-29T04:05:55;101673.28;;;9.55;100.00
19676;BME280;39539;52.202;9.876;2023-05-29T04:08:20;101691.75;;;9.71;100.00
19676;BME280;39539;52.202;9.876;2023-05-29T04:10:46;101687.44;;;9.70;100.00
19676;BME280;39539;52.202;9.876;2023-05-29T04:13:14;101686.09;;;9.74;100.00
19676;BME280;39539;52.202;9.876;2023-05-29T04:15:40;101685.59;;;9.71;100.00
19676;BME280;39539;52.202;9.876;2023-05-29T04:18:07;101700.59;;;9.86;100.00
19676;BME280;39539;52.202;9.876;2023-05-29T04:20:33;101707.50;;;9.96;100.00
19676;BME280;39539;52.202;9.876;2023-05-29T04:22:58;101703.81;;;10.05;100.00
19676;BME280;39539;52.202;9.876;2023-05-29T04:25:24;101708.06;;;10.14;100.00
19676;BME280;39539;52.202;9.876;2023-05-29T04:27:49;101699.00;;;10.23;100.00
19676;BME280;39539;52.202;9.876;2023-05-29T04:30:15;101684.66;;;10.32;100.00
19676;BME280;39539;52.202;9.876;2023-05-29T04:32:41;101713.31;;;10.60;100.00
19676;BME280;39539;52.202;9.876;2023-05-29T04:35:09;101699.75;;;10.70;100.00
19676;BME280;39539;52.202;9.876;2023-05-29T04:37:34;101715.19;;;10.89;100.00
19676;BME280;39539;52.202;9.876;2023-05-29T04:40:07;101698.47;;;10.81;100.00
19676;BME280;39539;52.202;9.876;2023-05-29T04:42:35;101693.66;;;10.84;100.00
19676;BME280;39539;52.202;9.876;2023-05-29T04:45:01;101706.00;;;10.92;100.00
19676;BME280;39539;52.202;9.876;2023-05-29T04:47:26;101723.44;;;11.09;100.00
19676;BME280;39539;52.202;9.876;2023-05-29T04:49:53;101714.63;;;11.23;100.00
19676;BME280;39539;52.202;9.876;2023-05-29T04:52:19;101712.13;;;11.37;100.00
19676;BME280;39539;52.202;9.876;2023-05-29T04:54:46;101720.34;;;11.57;100.00
19676;BME280;39539;52.202;9.876;2023-05-29T04:57:12;101717.78;;;11.63;100.00
19676;BME280;39539;52.202;9.876;2023-05-29T04:59:37;101725.50;;;11.80;100.00
19676;BME280;39539;52.202;9.876;2023-05-29T05:02:02;101719.81;;;11.83;100.00
19676;BME280;39539;52.202;9.876;2023-05-29T05:04:28;101731.53;;;12.03;100.00
19676;BME280;39539;52.202;9.876;2023-05-29T05:06:53;101730.06;;;12.22;100.00
19676;BME280;39539;52.202;9.876;2023-05-29T05:09:18;101717.75;;;12.21;100.00
19676;BME280;39539;52.202;9.876;2023-05-29T05:11:44;101729.91;;;12.52;100.00
19676;BME280;39539;52.202;9.876;2023-05-29T05:14:09;101713.16;;;12.65;99.14
19676;BME280;39539;52.202;9.876;2023-05-29T05:16:35;101727.84;;;12.82;98.61
19676;BME280;39539;52.202;9.876;2023-05-29T05:19:00;101700.41;;;12.88;98.01
19676;BME280;39539;52.202;9.876;2023-05-29T05:21:25;101724.16;;;13.18;97.06
19676;BME280;39539;52.202;9.876;2023-05-29T05:23:51;101728.38;;;13.34;96.63
19676;BME280;39539;52.202;9.876;2023-05-29T05:26:16;101722.75;;;13.70;94.91
19676;BME280;39539;52.202;9.876;2023-05-29T05:28:41;101716.66;;;13.96;93.85
19676;BME280;39539;52.202;9.876;2023-05-29T05:31:07;101717.72;;;14.22;89.91
19676;BME280;39539;52.202;9.876;2023-05-29T05:33:34;101702.28;;;14.30;88.61
19676;BME280;39539;52.202;9.876;2023-05-29T05:35:59;101708.88;;;14.41;89.56
19676;BME280;39539;52.202;9.876;2023-05-29T05:38:26;101709.66;;;14.48;89.45
19676;BME280;39539;52.202;9.876;2023-05-29T05:40:52;101692.00;;;14.54;89.23
19676;BME280;39539;52.202;9.876;2023-05-29T05:43:21;101697.13;;;14.75;89.76
19676;BME280;39539;52.202;9.876;2023-05-29T05:45:52;101682.50;;;14.71;86.52
19676;BME280;39539;52.202;9.876;2023-05-29T05:48:17;101691.16;;;14.73;87.53
19676;BME280;39539;52.202;9.876;2023-05-29T05:50:42;101684.53;;;14.89;86.37
19676;BME280;39539;52.202;9.876;2023-05-29T05:53:08;101683.66;;;15.02;86.54
19676;BME280;39539;52.202;9.876;2023-05-29T05:55:34;101687.94;;;15.16;87.05
19676;BME280;39539;52.202;9.876;2023-05-29T05:58:01;101707.34;;;15.50;83.29
19676;BME280;39539;52.202;9.876;2023-05-29T06:00:41;101691.56;;;15.80;81.17
19676;BME280;39539;52.202;9.876;2023-05-29T06:03:09;101679.81;;;16.06;82.54
19676;BME280;39539;52.202;9.876;2023-05-29T06:05:34;101693.41;;;16.36;78.67
19676;BME280;39539;52.202;9.876;2023-05-29T06:08:01;101701.25;;;17.00;78.38
19676;BME280;39539;52.202;9.876;2023-05-29T06:10:27;101689.81;;;17.23;75.39
19676;BME280;39539;52.202;9.876;2023-05-29T06:12:52;101681.63;;;18.44;70.34
19676;BME280;39539;52.202;9.876;2023-05-29T06:15:33;101680.16;;;21.36;60.54
19676;BME280;39539;52.202;9.876;2023-05-29T06:18:04;101661.56;;;23.72;51.42
19676;BME280;39539;52.202;9.876;2023-05-29T06:20:30;101646.00;;;25.59;48.47
19676;BME280;39539;52.202;9.876;2023-05-29T06:22:55;101627.00;;;24.99;44.67
19676;BME280;39539;52.202;9.876;2023-05-29T06:25:23;101625.94;;;23.69;46.68
19676;BME280;39539;52.202;9.876;2023-05-29T06:27:55;101632.69;;;24.38;46.08
19676;BME280;39539;52.202;9.876;2023-05-29T06:30:21;101612.38;;;24.90;45.47
19676;BME280;39539;52.202;9.876;2023-05-29T06:32:48;101610.47;;;26.57;43.21
19676;BME280;39539;52.202;9.876;2023-05-29T06:35:14;101599.97;;;27.45;41.16
19676;BME280;39539;52.202;9.876;2023-05-29T06:37:39;101598.22;;;25.38;43.13
19676;BME280;39539;52.202;9.876;2023-05-29T06:40:05;101571.75;;;25.48;42.76
19676;BME280;39539;52.202;9.876;2023-05-29T06:42:31;101558.44;;;24.53;44.84
19676;BME280;39539;52.202;9.876;2023-05-29T06:44:56;101551.47;;;24.21;45.33
19676;BME280;39539;52.202;9.876;2023-05-29T06:47:21;101581.69;;;23.99;46.17
19676;BME280;39539;52.202;9.876;2023-05-29T06:49:47;101556.19;;;23.59;46.81
19676;BME280;39539;52.202;9.876;2023-05-29T06:52:12;101558.81;;;25.30;43.94
19676;BME280;39539;52.202;9.876;2023-05-29T06:54:37;101562.19;;;26.33;42.08
19676;BME280;39539;52.202;9.876;2023-05-29T06:57:03;101564.28;;;26.84;41.57
19676;BME280;39539;52.202;9.876;2023-05-29T06:59:28;101548.03;;;27.12;41.54
19676;BME280;39539;52.202;9.876;2023-05-29T07:01:57;101573.06;;;27.85;40.78
19676;BME280;39539;52.202;9.876;2023-05-29T07:04:31;101558.84;;;29.92;37.54
19676;BME280;39539;52.202;9.876;2023-05-29T07:06:57;101552.06;;;29.89;36.83
19676;BME280;39539;52.202;9.876;2023-05-29T07:09:22;101536.63;;;26.91;38.75
19676;BME280;39539;52.202;9.876;2023-05-29T07:11:57;101533.03;;;27.28;40.31
19676;BME280;39539;52.202;9.876;2023-05-29T07:14:37;101555.41;;;25.77;42.06
19676;BME280;39539;52.202;9.876;2023-05-29T07:17:06;101533.66;;;23.23;45.70
19676;BME280;39539;52.202;9.876;2023-05-29T07:19:32;101530.69;;;21.83;49.19
19676;BME280;39539;52.202;9.876;2023-05-29T07:21:59;101540.16;;;22.33;48.64
19676;BME280;39539;52.202;9.876;2023-05-29T07:24:25;101537.59;;;22.69;49.02
19676;BME280;39539;52.202;9.876;2023-05-29T07:26:52;101553.97;;;23.00;47.70
19676;BME280;39539;52.202;9.876;2023-05-29T07:29:20;101548.91;;;22.46;48.56
19676;BME280;39539;52.202;9.876;2023-05-29T07:31:48;101570.13;;;24.58;45.76
19676;BME280;39539;52.202;9.876;2023-05-29T07:34:17;101575.97;;;26.66;42.06
19676;BME280;39539;52.202;9.876;2023-05-29T07:37:02;101568.72;;;27.18;40.88
19676;BME280;39539;52.202;9.876;2023-05-29T07:39:31;101558.41;;;29.00;38.76
19676;BME280;39539;52.202;9.876;2023-05-29T07:41:56;101556.31;;;29.42;37.68
19676;BME280;39539;52.202;9.876;2023-05-29T07:44:22;101563.53;;;30.31;37.70
19676;BME280;39539;52.202;9.876;2023-05-29T07:46:48;101549.13;;;31.00;35.65
19676;BME280;39539;52.202;9.876;2023-05-29T07:49:15;101547.91;;;30.40;36.27
19676;BME280;39539;52.202;9.876;2023-05-29T07:51:41;101534.59;;;28.50;38.65
19676;BME280;39539;52.202;9.876;2023-05-29T07:54:06;101538.06;;;29.99;36.46
19676;BME280;39539;52.202;9.876;2023-05-29T07:56:52;101521.47;;;28.75;36.95
19676;BME280;39539;52.202;9.876;2023-05-29T07:59:25;101510.72;;;26.88;40.13
19676;BME280;39539;52.202;9.876;2023-05-29T08:01:51;101508.19;;;28.32;37.76
19676;BME280;39539;52.202;9.876;2023-05-29T08:04:17;101516.19;;;29.46;36.77
19676;BME280;39539;52.202;9.876;2023-05-29T08:06:44;101531.28;;;30.63;35.75
19676;BME280;39539;52.202;9.876;2023-05-29T08:09:09;101514.63;;;31.46;34.61
19676;BME280;39539;52.202;9.876;2023-05-29T08:11:38;101508.91;;;31.60;35.25
19676;BME280;39539;52.202;9.876;2023-05-29T08:14:06;101527.03;;;31.61;33.05
19676;BME280;39539;52.202;9.876;2023-05-29T08:16:33;101509.28;;;31.50;33.55
19676;BME280;39539;52.202;9.876;2023-05-29T08:18:59;101505.81;;;29.34;37.03
19676;BME280;39539;52.202;9.876;2023-05-29T08:21:24;101514.13;;;29.51;36.93
19676;BME280;39539;52.202;9.876;2023-05-29T08:23:57;101494.00;;;28.80;36.67
19676;BME280;39539;52.202;9.876;2023-05-29T08:26:22;101484.84;;;28.84;36.14
19676;BME280;39539;52.202;9.876;2023-05-29T08:28:48;101483.94;;;28.53;37.20
19676;BME280;39539;52.202;9.876;2023-05-29T08:31:19;101482.69;;;29.49;36.20
19676;BME280;39539;52.202;9.876;2023-05-29T08:33:44;101471.44;;;29.19;37.23
19676;BME280;39539;52.202;9.876;2023-05-29T08:36:10;101489.53;;;29.29;37.72
19676;BME280;39539;52.202;9.876;2023-05-29T08:38:36;101471.97;;;28.62;36.19
19676;BME280;39539;52.202;9.876;2023-05-29T08:41:02;101481.28;;;28.61;37.98
19676;BME280;39539;52.202;9.876;2023-05-29T08:43:34;101493.38;;;28.47;37.84
19676;BME280;39539;52.202;9.876;2023-05-29T08:46:01;101488.13;;;28.95;38.94
19676;BME280;39539;52.202;9.876;2023-05-29T08:48:29;101477.91;;;27.73;38.33
19676;BME280;39539;52.202;9.876;2023-05-29T08:50:56;101488.44;;;28.49;37.44
19676;BME280;39539;52.202;9.876;2023-05-29T08:53:25;101481.72;;;29.45;37.33
19676;BME280;39539;52.202;9.876;2023-05-29T08:55:52;101484.38;;;29.05;37.10
19676;BME280;39539;52.202;9.876;2023-05-29T08:58:19;101469.97;;;29.44;38.11
19676;BME280;39539;52.202;9.876;2023-05-29T09:00:46;101498.38;;;29.97;36.41
19676;BME280;39539;52.202;9.876;2023-05-29T09:03:14;101490.78;;;31.03;35.22
19676;BME280;39539;52.202;9.876;2023-05-29T09:05:40;101467.78;;;28.29;37.72
19676;BME280;39539;52.202;9.876;2023-05-29T09:08:11;101479.84;;;27.72;38.35
19676;BME280;39539;52.202;9.876;2023-05-29T09:10:44;101479.59;;;28.38;35.94
19676;BME280;39539;52.202;9.876;2023-05-29T09:13:11;101473.28;;;28.01;37.78
19676;BME280;39539;52.202;9.876;2023-05-29T09:15:39;101460.81;;;26.69;37.88
19676;BME280;39539;52.202;9.876;2023-05-29T09:18:08;101481.38;;;28.20;37.85
19676;BME280;39539;52.202;9.876;2023-05-29T09:20:34;101488.78;;;27.92;40.61
19676;BME280;39539;52.202;9.876;2023-05-29T09:23:01;101465.19;;;27.96;39.62
19676;BME280;39539;52.202;9.876;2023-05-29T09:25:30;101474.25;;;28.47;38.92
19676;BME280;39539;52.202;9.876;2023-05-29T09:28:01;101491.25;;;28.30;37.02
19676;BME280;39539;52.202;9.876;2023-05-29T09:30:35;101496.50;;;27.71;38.12
19676;BME280;39539;52.202;9.876;2023-05-29T09:33:05;101494.28;;;28.42;38.26
19676;BME280;39539;52.202;9.876;2023-05-29T09:35:39;101501.31;;;29.38;39.30
19676;BME280;39539;52.202;9.876;2023-05-29T09:38:05;101495.13;;;28.29;39.54
19676;BME280;39539;52.202;9.876;2023-05-29T09:40:35;101497.69;;;27.84;39.16
19676;BME280;39539;52.202;9.876;2023-05-29T09:43:05;101497.38;;;27.99;39.47
19676;BME280;39539;52.202;9.876;2023-05-29T09:45:37;101499.13;;;28.59;35.74
19676;BME280;39539;52.202;9.876;2023-05-29T09:48:06;101501.22;;;27.98;38.88
19676;BME280;39539;52.202;9.876;2023-05-29T09:50:33;101496.91;;;28.47;39.72
19676;BME280;39539;52.202;9.876;2023-05-29T09:52:59;101503.22;;;29.91;37.61
19676;BME280;39539;52.202;9.876;2023-05-29T09:55:27;101492.75;;;30.02;35.71
19676;BME280;39539;52.202;9.876;2023-05-29T09:57:54;101489.00;;;30.47;36.95
19676;BME280;39539;52.202;9.876;2023-05-29T10:00:20;101496.28;;;31.59;35.18
19676;BME280;39539;52.202;9.876;2023-05-29T10:02:47;101471.81;;;29.35;35.63
19676;BME280;39539;52.202;9.876;2023-05-29T10:05:14;101455.47;;;28.04;37.49
19676;BME280;39539;52.202;9.876;2023-05-29T10:07:44;101470.03;;;27.99;39.16
19676;BME280;39539;52.202;9.876;2023-05-29T10:10:19;101470.91;;;28.72;37.83
19676;BME280;39539;52.202;9.876;2023-05-29T10:12:48;101453.84;;;28.03;37.98
19676;BME280;39539;52.202;9.876;2023-05-29T10:15:15;101474.38;;;28.64;39.90
19676;BME280;39539;52.202;9.876;2023-05-29T10:18:24;101472.59;;;29.27;37.39
19676;BME280;39539;52.202;9.876;2023-05-29T10:20:51;101478.38;;;28.30;37.90
19676;BME280;39539;52.202;9.876;2023-05-29T10:23:21;101472.28;;;27.83;37.91
19676;BME280;39539;52.202;9.876;2023-05-29T10:25:57;101477.06;;;28.28;37.51
19676;BME280;39539;52.202;9.876;2023-05-29T10:28:27;101461.66;;;28.59;36.88
19676;BME280;39539;52.202;9.876;2023-05-29T10:30:56;101444.47;;;28.45;38.69
19676;BME280;39539;52.202;9.876;2023-05-29T10:36:20;101457.84;;;26.47;43.38
19676;BME280;39539;52.202;9.876;2023-05-29T10:38:51;101452.56;;;25.40;42.67
19676;BME280;39539;52.202;9.876;2023-05-29T10:44:00;101447.94;;;23.22;43.57
19676;BME280;39539;52.202;9.876;2023-05-29T10:49:19;101449.75;;;23.78;47.76
19676;BME280;39539;52.202;9.876;2023-05-29T10:51:44;101445.22;;;23.17;42.91
19676;BME280;39539;52.202;9.876;2023-05-29T10:54:10;101438.94;;;23.52;45.79
19676;BME280;39539;52.202;9.876;2023-05-29T10:56:36;101455.47;;;23.76;44.50
19676;BME280;39539;52.202;9.876;2023-05-29T10:59:01;101442.13;;;23.90;47.61
19676;BME280;39539;52.202;9.876;2023-05-29T11:01:29;101467.47;;;24.35;47.16
19676;BME280;39539;52.202;9.876;2023-05-29T11:06:52;101444.06;;;23.79;45.39
19676;BME280;39539;52.202;9.876;2023-05-29T11:09:38;101458.78;;;24.28;46.24
19676;BME280;39539;52.202;9.876;2023-05-29T11:14:45;101445.78;;;23.14;46.30
19676;BME280;39539;52.202;9.876;2023-05-29T11:17:29;101430.78;;;22.70;46.24
19676;BME280;39539;52.202;9.876;2023-05-29T11:19:56;101439.22;;;22.74;49.26
19676;BME280;39539;52.202;9.876;2023-05-29T11:22:33;101464.75;;;23.39;49.60
19676;BME280;39539;52.202;9.876;2023-05-29T11:25:01;101454.63;;;23.86;47.28
19676;BME280;39539;52.202;9.876;2023-05-29T11:27:27;101468.41;;;24.00;48.30
19676;BME280;39539;52.202;9.876;2023-05-29T11:29:53;101473.00;;;24.09;46.60
19676;BME280;39539;52.202;9.876;2023-05-29T11:32:23;101449.06;;;24.11;47.71
19676;BME280;39539;52.202;9.876;2023-05-29T11:34:53;101456.28;;;23.82;46.91
19676;BME280;39539;52.202;9.876;2023-05-29T11:37:22;101451.44;;;23.53;45.26
19676;BME280;39539;52.202;9.876;2023-05-29T11:39:51;101465.56;;;23.40;46.66
19676;BME280;39539;52.202;9.876;2023-05-29T11:42:16;101450.38;;;23.03;47.93
19676;BME280;39539;52.202;9.876;2023-05-29T11:44:41;101446.53;;;22.63;48.04
19676;BME280;39539;52.202;9.876;2023-05-29T11:47:07;101454.66;;;22.68;48.98
19676;BME280;39539;52.202;9.876;2023-05-29T11:49:53;101466.13;;;22.96;48.24
19676;BME280;39539;52.202;9.876;2023-05-29T11:52:18;101465.84;;;23.07;48.60
19676;BME280;39539;52.202;9.876;2023-05-29T11:54:49;101467.16;;;22.90;46.77
19676;BME280;39539;52.202;9.876;2023-05-29T11:57:20;101444.28;;;22.29;47.47
19676;BME280;39539;52.202;9.876;2023-05-29T11:59:46;101464.13;;;22.55;49.08
19676;BME280;39539;52.202;9.876;2023-05-29T12:02:11;101445.41;;;22.59;48.24
19676;BME280;39539;52.202;9.876;2023-05-29T12:04:37;101433.69;;;22.28;47.98
19676;BME280;39539;52.202;9.876;2023-05-29T12:07:19;101426.13;;;21.67;47.66
19676;BME280;39539;52.202;9.876;2023-05-29T12:09:44;101430.09;;;21.54;48.52
19676;BME280;39539;52.202;9.876;2023-05-29T12:12:10;101423.59;;;22.03;49.80
19676;BME280;39539;52.202;9.876;2023-05-29T12:14:35;101424.13;;;22.10;51.04
19676;BME280;39539;52.202;9.876;2023-05-29T12:17:10;101447.56;;;22.47;48.64
19676;BME280;39539;52.202;9.876;2023-05-29T12:19:37;101444.06;;;22.51;48.68
19676;BME280;39539;52.202;9.876;2023-05-29T12:22:03;101458.47;;;22.82;48.45
19676;BME280;39539;52.202;9.876;2023-05-29T12:24:28;101450.38;;;23.03;49.27
19676;BME280;39539;52.202;9.876;2023-05-29T12:26:58;101457.16;;;23.21;49.66
19676;BME280;39539;52.202;9.876;2023-05-29T12:29:35;101451.19;;;23.29;48.04
19676;BME280;39539;52.202;9.876;2023-05-29T12:32:09;101456.34;;;23.30;46.61
19676;BME280;39539;52.202;9.876;2023-05-29T12:34:36;101449.31;;;22.99;46.94
19676;BME280;39539;52.202;9.876;2023-05-29T12:37:08;101439.53;;;23.08;48.03
19676;BME280;39539;52.202;9.876;2023-05-29T12:39:35;101421.59;;;22.81;47.82
19676;BME280;39539;52.202;9.876;2023-05-29T12:42:00;101438.38;;;22.48;48.47
19676;BME280;39539;52.202;9.876;2023-05-29T12:44:25;101447.78;;;22.30;48.11
19676;BME280;39539;52.202;9.876;2023-05-29T12:46:56;101448.06;;;22.33;49.35
19676;BME280;39539;52.202;9.876;2023-05-29T12:49:21;101447.03;;;22.39;48.77
19676;BME280;39539;52.202;9.876;2023-05-29T12:51:51;101445.69;;;22.52;48.48
19676;BME280;39539;52.202;9.876;2023-05-29T12:54:17;101439.47;;;22.52;48.47
19676;BME280;39539;52.202;9.876;2023-05-29T12:56:43;101454.16;;;22.92;49.09
19676;BME280;39539;52.202;9.876;2023-05-29T12:59:11;101449.53;;;22.77;48.15
19676;BME280;39539;52.202;9.876;2023-05-29T13:01:37;101452.47;;;22.70;48.52
19676;BME280;39539;52.202;9.876;2023-05-29T13:04:06;101434.31;;;22.60;48.59
19676;BME280;39539;52.202;9.876;2023-05-29T13:06:33;101424.41;;;22.08;48.18
19676;BME280;39539;52.202;9.876;2023-05-29T13:08:58;101437.13;;;22.13;47.69
19676;BME280;39539;52.202;9.876;2023-05-29T13:11:25;101429.78;;;21.13;48.20